Data for 05/13/2005

Time Sea-Level Adjusted Pressure Absolute Pressure Temperature Relative Humidity Dew Point   
(mb) (inHg) (mb) (inHg) (C) (F) (%) (C) (F)
00:05 1020 30.12 849 25.07 3.3 37.9 84 0.8 33.5
00:10 1020 30.12 849 25.07 3.1 37.5 86 0.9 33.7
00:15 1020 30.12 849 25.07 2.8 37 86 0.7 33.3
00:20 1020 30.12 849 25.07 3 37.4 84 0.6 33.1
00:25 1020 30.12 849 25.07 3.1 37.5 84 0.7 33.3
00:30 1020 30.12 849 25.07 3.1 37.5 84 0.7 33.2
00:35 1020 30.12 849 25.07 2.8 37.1 85 0.5 32.9
00:40 1020 30.12 849 25.07 3 37.3 84 0.5 32.8
00:45 1020 30.12 849 25.07 3.3 38 82 0.6 33.1
00:50 1020 30.12 849 25.07 3.2 37.8 83 0.7 33.2
00:55 1020 30.12 849 25.07 3.3 38 82 0.6 33
01:00 1020 30.12 849 25.07 3.3 38 82 0.6 33.1
01:05 1020 30.12 849 25.07 3.4 38.1 82 0.7 33.2
01:10 1020 30.12 849 25.07 3 37.3 86 0.9 33.6
01:15 1020 30.12 849 25.07 2.4 36.3 88 0.6 33.2
01:20 1020 30.12 849 25.07 2.4 36.4 87 0.6 33
01:25 1020 30.12 849 25.07 2.5 36.5 89 0.8 33.5
01:30 1020 30.12 849 25.07 2.3 36.2 90 0.8 33.5
01:35 1020 30.12 849 25.07 2.3 36.1 90 0.9 33.6
01:40 1020 30.12 849 25.07 2.3 36.1 90 0.8 33.5
01:45 1020 30.12 849 25.07 2.3 36.1 90 0.9 33.5
01:50 1020 30.12 849 25.07 2.4 36.3 90 0.9 33.6
01:55 1020 30.12 849 25.07 2.5 36.5 89 0.9 33.6
02:00 1020 30.12 849 25.07 2.6 36.7 89 0.9 33.7
02:05 1020 30.12 849 25.07 2.7 36.8 89 1 33.7
02:10 1020 30.12 849 25.07 2.7 36.8 88 0.9 33.6
02:15 1020 30.12 849 25.07 2.8 37 88 1 33.7
02:20 1020 30.12 849 25.07 2.8 37 88 1 33.7
02:25 1020 30.12 849 25.07 2.7 36.8 89 1 33.8
02:30 1020 30.12 849 25.07 2.5 36.5 89 0.9 33.7
02:35 1020 30.12 849 25.07 2.4 36.4 89 0.8 33.5
02:40 1020 30.12 849 25.07 2.4 36.3 89 0.8 33.4
02:45 1020 30.12 849 25.07 2.3 36.2 90 0.8 33.5
02:50 1020 30.12 849 25.07 2.2 36 90 0.8 33.5
02:55 1020 30.12 849 25.07 2.1 35.8 91 0.8 33.4
03:00 1020 30.12 849 25.07 2 35.6 91 0.8 33.4
03:05 1020 30.12 849 25.07 2.2 36 91 0.9 33.6
03:10 1020 30.12 849 25.07 2.4 36.2 90 0.9 33.6
03:15 1020 30.12 849 25.07 2.2 36 90 0.8 33.4
03:20 1020 30.12 849 25.07 2.4 36.2 89 0.8 33.4
03:25 1020 30.12 849 25.07 2.4 36.3 90 0.9 33.6
03:30 1020 30.12 849 25.07 2.3 36.2 89 0.7 33.3
03:35 1020 30.12 849 25.07 2.3 36.2 89 0.7 33.3
03:40 1020 30.12 849 25.07 2 35.6 91 0.7 33.2
03:45 1020 30.12 849 25.07 1.9 35.3 91 0.6 33
03:50 1020 30.12 849 25.07 1.8 35.2 91 0.5 32.9
03:55 1020 30.12 849 25.07 1.8 35.2 91 0.5 32.9
04:00 1020 30.12 850 25.1 1.8 35.3 91 0.5 32.9
04:05 1020 30.12 849 25.07 1.8 35.2 91 0.5 32.9
04:10 1020 30.12 849 25.07 1.7 35.1 91 0.4 32.7
04:15 1020 30.12 849 25.07 1.8 35.3 91 0.5 32.9
04:20 1020 30.12 849 25.07 1.9 35.3 91 0.5 32.9
04:25 1020 30.12 849 25.07 1.9 35.5 90 0.5 32.9
04:30 1020 30.12 849 25.07 1.9 35.5 91 0.6 33
04:35 1020 30.12 849 25.07 1.8 35.3 91 0.6 33
04:40 1020 30.12 849 25.07 1.6 34.8 92 0.4 32.7
04:45 1020 30.12 850 25.1 1.4 34.5 93 0.3 32.6
04:50 1020 30.12 850 25.1 1.4 34.5 93 0.4 32.6
04:55 1020 30.12 850 25.1 1.4 34.6 93 0.4 32.7
05:00 1020 30.12 850 25.1 1.4 34.6 92 0.2 32.4
05:05 1020 30.12 850 25.1 1.3 34.4 92 0.2 32.4
05:10 1020 30.12 850 25.1 1.2 34.2 93 0.2 32.3
05:15 1020 30.12 850 25.1 1.3 34.3 93 0.2 32.4
05:20 1020 30.12 850 25.1 1.5 34.8 91 0.3 32.5
05:25 1021 30.15 850 25.1 1.6 34.9 91 0.3 32.6
05:30 1020 30.12 850 25.1 1.7 35.1 91 0.3 32.6
05:35 1021 30.15 850 25.1 1.6 34.8 92 0.3 32.6
05:40 1021 30.15 850 25.1 1.6 34.9 91 0.3 32.6
05:45 1021 30.15 850 25.1 1.7 35.1 91 0.4 32.7
05:50 1021 30.15 850 25.1 1.8 35.3 91 0.5 32.8
05:55 1021 30.15 850 25.1 2 35.5 90 0.6 33
06:00 1021 30.15 850 25.1 1.8 35.3 91 0.5 32.8
06:05 1021 30.15 850 25.1 1.6 34.8 91 0.3 32.5
06:10 1021 30.15 850 25.1 1.3 34.3 92 0.1 32.2
06:15 1021 30.15 850 25.1 1.3 34.3 92 0.2 32.4
06:20 1021 30.15 850 25.1 1.6 34.9 90 0.2 32.3
06:25 1021 30.15 850 25.1 1.4 34.6 91 0.1 32.1
06:30 1021 30.15 850 25.1 1.5 34.7 91 0.1 32.2
06:35 1021 30.15 850 25.1 1.6 34.9 90 0.2 32.3
06:40 1021 30.15 850 25.1 1.9 35.4 88 0.2 32.3
06:45 1021 30.15 850 25.1 2.1 35.8 88 0.2 32.4
06:50 1021 30.15 850 25.1 2.3 36.1 86 0.3 32.5
06:55 1021 30.15 850 25.1 2.6 36.6 86 0.5 32.8
07:00 1021 30.15 850 25.1 2.6 36.6 87 0.6 33.1
07:05 1021 30.15 850 25.1 2.7 36.9 85 0.4 32.8
07:10 1021 30.15 850 25.1 3 37.5 84 0.6 33.1
07:15 1021 30.15 850 25.1 3.4 38.2 83 0.8 33.4
07:20 1021 30.15 850 25.1 3.9 39.1 82 1.1 33.9
07:25 1021 30.15 850 25.1 4 39.2 82 1.2 34.1
07:30 1021 30.15 850 25.1 4.1 39.3 82 1.3 34.3
07:35 1021 30.15 850 25.1 3.8 38.9 83 1.2 34.2
07:40 1021 30.15 850 25.1 3.9 38.9 83 1.3 34.3
07:45 1021 30.15 850 25.1 3.8 38.9 84 1.4 34.5
07:50 1021 30.15 850 25.1 3.8 38.9 84 1.4 34.5
07:55 1021 30.15 850 25.1 3.8 38.8 85 1.4 34.5
08:00 1021 30.15 850 25.1 3.9 39 84 1.5 34.7
08:05 1021 30.15 850 25.1 4.1 39.3 83 1.4 34.5
08:10 1021 30.15 850 25.1 4.4 39.9 82 1.6 35
08:15 1021 30.15 850 25.1 5 41 82 2.2 35.9
08:20 1021 30.15 850 25.1 5.6 42.1 79 2.2 36
08:25 1021 30.15 851 25.13 6 42.8 79 2.6 36.6
08:30 1021 30.15 851 25.13 6.1 43 80 2.8 37.1
08:35 1022 30.18 851 25.13 6 42.9 79 2.7 36.9
08:40 1022 30.18 851 25.13 6.4 43.5 78 2.8 37
08:45 1022 30.18 851 25.13 6.9 44.4 75 2.8 37.1
08:50 1022 30.18 851 25.13 7.3 45.2 76 3.3 38
08:55 1022 30.18 851 25.13 6.9 44.5 73 2.5 36.5
09:00 1022 30.18 851 25.13 6.8 44.3 75 2.6 36.7
09:05 1022 30.18 851 25.13 6.7 44 75 2.6 36.6
09:10 1022 30.18 851 25.13 6.5 43.8 77 2.9 37.2
09:15 1022 30.18 851 25.13 6.6 43.8 77 2.8 37.1
09:20 1022 30.18 851 25.13 7 44.6 73 2.4 36.3
09:25 1022 30.18 851 25.13 8.2 46.7 71 3.2 37.8
09:30 1022 30.18 851 25.13 9 48.2 66 3.1 37.6
09:35 1022 30.18 851 25.13 9.1 48.3 67 3.3 38
09:40 1022 30.18 851 25.13 9.2 48.6 65 3.1 37.6
09:45 1022 30.18 851 25.13 9.2 48.5 68 3.6 38.5
09:50 1022 30.18 851 25.13 9.8 49.6 66 3.7 38.6
09:55 1022 30.18 851 25.13 9.9 49.8 65 3.6 38.4
10:00 1022 30.18 851 25.13 9.8 49.6 65 3.6 38.5
10:05 1022 30.18 851 25.13 9.7 49.5 67 3.8 38.9
10:10 1022 30.18 851 25.13 9.5 49.1 66 3.6 38.4
10:15 1022 30.18 851 25.13 9.3 48.7 67 3.5 38.2
10:20 1022 30.18 851 25.13 9.6 49.3 66 3.7 38.7
10:25 1022 30.18 851 25.13 9.9 49.8 65 3.6 38.6
10:30 1022 30.18 851 25.13 9.9 49.7 67 4.1 39.4
10:35 1022 30.18 851 25.13 9.8 49.7 72 5 41
10:40 1022 30.18 851 25.13 10 50 64 3.6 38.4
10:45 1022 30.18 851 25.13 10.3 50.5 62 3.3 38
10:50 1022 30.18 851 25.13 10.5 50.9 63 3.8 38.9
10:55 1022 30.18 851 25.13 10.4 50.7 65 4.2 39.5
11:00 1022 30.18 851 25.13 9.9 49.8 70 4.6 40.4
11:05 1022 30.18 851 25.13 9.9 49.8 69 4.5 40.1
11:10 1022 30.18 851 25.13 10.3 50.5 67 4.4 39.9
11:15 1022 30.18 851 25.13 10.3 50.5 67 4.4 39.9
11:20 1022 30.18 851 25.13 10.9 51.7 63 4.3 39.7
11:25 1022 30.18 851 25.13 12 53.5 61 4.6 40.3
11:30 1022 30.18 851 25.13 11.8 53.2 61 4.5 40.1
11:35 1022 30.18 851 25.13 11.3 52.3 60 3.9 39
11:40 1022 30.18 851 25.13 11.5 52.7 62 4.5 40.1
11:45 1022 30.18 851 25.13 11.7 53.1 59 4.1 39.3
11:50 1022 30.18 851 25.13 12.8 55.1 55 4 39.3
11:55 1022 30.18 851 25.13 12.1 53.8 55 3.5 38.3
12:00 1022 30.18 851 25.13 13.1 55.6 52 3.5 38.2
12:05 1022 30.18 851 25.13 13.7 56.7 51 3.7 38.7
12:10 1022 30.18 851 25.13 13.8 56.9 51 4.1 39.3
12:15 1022 30.18 851 25.13 13.8 56.8 53 4.3 39.8
12:20 1022 30.18 851 25.13 13.7 56.6 53 4.2 39.6
12:25 1022 30.18 851 25.13 14.2 57.6 50 4 39.1
12:30 1022 30.18 851 25.13 14.8 58.7 49 4.3 39.7
12:35 1022 30.18 851 25.13 15 58.9 49 4.5 40.2
12:40 1022 30.18 851 25.13 15.6 60.1 48 4.6 40.3
12:45 1022 30.18 851 25.13 15.3 59.5 50 4.9 40.9
12:50 1022 30.18 851 25.13 14.7 58.5 48 3.9 39.1
12:55 1022 30.18 851 25.13 14.7 58.5 48 3.9 39.1
13:00 1022 30.18 851 25.13 15 59 47 3.9 39.1
13:05 1022 30.18 851 25.13 15 59 48 4.2 39.5
13:10 1022 30.18 851 25.13 15.1 59.3 47 3.9 39.1
13:15 1022 30.18 851 25.13 15 58.9 47 3.7 38.7
13:20 1022 30.18 851 25.13 15.2 59.4 48 4.4 39.8
13:25 1022 30.18 851 25.13 15 59 47 4 39.2
13:30 1022 30.18 851 25.13 14.9 58.7 48 4 39.2
13:35 1022 30.18 851 25.13 14.8 58.6 49 4.2 39.6
13:40 1022 30.18 851 25.13 15.4 59.8 44 3.3 38
13:45 1022 30.18 851 25.13 15.4 59.7 49 4.8 40.6
13:50 1022 30.18 851 25.13 14.5 58.1 49 4.1 39.4
13:55 1022 30.18 851 25.13 15.3 59.5 46 3.8 38.8
14:00 1022 30.18 851 25.13 16 60.8 44 3.9 39.1
14:05 1022 30.18 851 25.13 16.4 61.5 43 4 39.1
14:10 1022 30.18 851 25.13 16.4 61.6 44 4.2 39.5
14:15 1022 30.18 851 25.13 16.5 61.7 43 4 39.1
14:20 1022 30.18 851 25.13 17.2 62.9 41 4.1 39.3
14:25 1022 30.18 851 25.13 17.3 63.1 41 4.2 39.5
14:30 1022 30.18 851 25.13 17.7 63.8 40 4.1 39.4
14:35 1022 30.18 851 25.13 18.1 64.6 39 4.2 39.6
14:40 1022 30.18 851 25.13 17.7 63.8 42 4.8 40.6
14:45 1022 30.18 851 25.13 17.1 62.7 40 3.5 38.3
14:50 1022 30.18 851 25.13 17.9 64.2 40 4.3 39.7
14:55 1022 30.18 851 25.13 17.2 63 45 5.1 41.3
15:00 1021 30.15 851 25.13 16.6 61.9 45 4.8 40.6
15:05 1021 30.15 851 25.13 16.5 61.7 45 4.6 40.3
15:10 1021 30.15 851 25.13 16.2 61.1 45 4.2 39.5
15:15 1021 30.15 851 25.13 16.4 61.5 45 4.5 40.2
15:20 1021 30.15 850 25.1 16.2 61.2 45 4.5 40
15:25 1021 30.15 850 25.1 16.7 62.1 39 2.9 37.2
15:30 1021 30.15 850 25.1 17.3 63.1 39 3.4 38.1
15:35 1021 30.15 850 25.1 17.3 63.2 38 3.1 37.6
15:40 1021 30.15 850 25.1 17.8 64 39 3.8 38.8
15:45 1021 30.15 850 25.1 16.9 62.3 40 3.3 38
15:50 1021 30.15 850 25.1 16.7 62 41 3.4 38.2
15:55 1021 30.15 850 25.1 17.4 63.3 38 3.1 37.6
16:00 1021 30.15 850 25.1 17.6 63.7 39 3.5 38.4
16:05 1021 30.15 850 25.1 17.9 64.2 35 2.5 36.6
16:10 1021 30.15 850 25.1 17.7 63.8 39 3.7 38.7
16:15 1021 30.15 850 25.1 17.3 63.2 38 2.9 37.2
16:20 1021 30.15 850 25.1 16.8 62.2 41 3.5 38.2
16:25 1021 30.15 850 25.1 16.3 61.4 41 3.2 37.8
16:30 1021 30.15 850 25.1 16.6 61.8 40 2.9 37.2
16:35 1021 30.15 850 25.1 16.4 61.5 39 2.6 36.7
16:40 1021 30.15 850 25.1 16.3 61.3 41 3.1 37.6
16:45 1021 30.15 850 25.1 16.5 61.8 41 3.4 38.1
16:50 1021 30.15 850 25.1 16.9 62.4 39 3.2 37.7
16:55 1021 30.15 850 25.1 17.3 63.1 37 2.5 36.5
17:00 1021 30.15 850 25.1 17.4 63.2 39 3.2 37.8
17:05 1021 30.15 850 25.1 16.9 62.4 36 1.7 35.1
17:10 1021 30.15 850 25.1 17 62.6 34 1.2 34.2
17:15 1021 30.15 850 25.1 17.1 62.8 35 1.6 34.9
17:20 1021 30.15 850 25.1 16.6 61.8 36 1.6 34.9
17:25 1021 30.15 850 25.1 16.3 61.3 39 2.3 36.1
17:30 1021 30.15 850 25.1 15.9 60.6 47 4.8 40.6
17:35 1021 30.15 850 25.1 14.9 58.8 51 4.8 40.7
17:40 1021 30.15 850 25.1 14.1 57.4 53 4.7 40.4
17:45 1021 30.15 850 25.1 13 55.3 67 6.9 44.5
17:50 1021 30.15 850 25.1 11.8 53.2 68 6.1 43
17:55 1021 30.15 850 25.1 11.7 53.1 68 6 42.7
18:00 1021 30.15 850 25.1 11.6 52.8 68 5.9 42.6
18:05 1021 30.15 850 25.1 11.6 52.9 67 5.8 42.4
18:10 1021 30.15 851 25.13 11.9 53.4 66 5.8 42.5
18:15 1021 30.15 850 25.1 12.1 53.8 63 5.4 41.8
18:20 1021 30.15 850 25.1 12.1 53.8 64 5.5 42
18:25 1021 30.15 851 25.13 12.4 54.3 61 5.1 41.2
18:30 1021 30.15 851 25.13 12.4 54.3 61 5.1 41.3
18:35 1021 30.15 851 25.13 12.4 54.3 60 5 41
18:40 1021 30.15 851 25.13 12.4 54.2 61 5.2 41.3
18:45 1021 30.15 851 25.13 12.5 54.4 60 4.9 40.8
18:50 1021 30.15 851 25.13 12.8 55 58 4.9 40.8
18:55 1021 30.15 851 25.13 12.9 55.2 57 4.7 40.5
19:00 1021 30.15 851 25.13 12.8 55 58 4.7 40.4
19:05 1021 30.15 851 25.13 12.7 54.9 57 4.6 40.2
19:10 1021 30.15 851 25.13 12.8 55 57 4.6 40.4
19:15 1021 30.15 851 25.13 12.8 55 57 4.6 40.3
19:20 1021 30.15 851 25.13 12.8 55.1 57 4.6 40.3
19:25 1021 30.15 851 25.13 13 55.3 56 4.4 40
19:30 1021 30.15 851 25.13 13 55.4 55 4.3 39.8
19:35 1021 30.15 851 25.13 12.9 55.1 57 4.6 40.2
19:40 1021 30.15 851 25.13 12.8 55 57 4.5 40.1
19:45 1022 30.18 851 25.13 12.9 55.2 58 4.9 40.9
19:50 1022 30.18 851 25.13 13.1 55.5 57 4.7 40.5
19:55 1021 30.15 851 25.13 13.1 55.5 57 4.7 40.4
20:00 1021 30.15 851 25.13 12.9 55.2 58 4.9 40.7
20:05 1021 30.15 851 25.13 12.7 54.9 60 5.2 41.4
20:10 1022 30.18 851 25.13 12.4 54.4 62 5.3 41.5
20:15 1022 30.18 851 25.13 12.3 54.1 63 5.4 41.8
20:20 1022 30.18 851 25.13 12.2 53.9 64 5.6 42
20:25 1022 30.18 851 25.13 12 53.5 65 5.7 42.2
20:30 1022 30.18 851 25.13 11.7 53.1 67 5.8 42.5
20:35 1022 30.18 851 25.13 11.6 52.9 68 6 42.7
20:40 1021 30.15 851 25.13 11.5 52.6 68 5.9 42.6
20:45 1021 30.15 851 25.13 11.4 52.6 65 5.2 41.3
20:50 1021 30.15 851 25.13 11.4 52.5 67 5.5 41.8
20:55 1021 30.15 851 25.13 11.4 52.5 66 5.3 41.5
21:00 1021 30.15 851 25.13 11.5 52.6 67 5.7 42.2
21:05 1021 30.15 851 25.13 11.6 52.8 64 5 41.1
21:10 1021 30.15 851 25.13 11.6 52.9 64 5.1 41.2
21:15 1021 30.15 851 25.13 11.7 53.1 64 5.2 41.3
21:20 1021 30.15 851 25.13 11.4 52.6 66 5.3 41.5
21:25 1021 30.15 851 25.13 11.2 52.1 66 5.1 41.2
21:30 1021 30.15 851 25.13 10.9 51.7 67 5 41
21:35 1021 30.15 851 25.13 11 51.7 67 5.1 41.1
21:40 1021 30.15 851 25.13 10.9 51.5 67 5.1 41.1
21:45 1021 30.15 851 25.13 10.8 51.4 68 5.1 41.2
21:50 1022 30.18 851 25.13 11 51.8 67 5.1 41.2
21:55 1022 30.18 851 25.13 10.9 51.6 70 5.7 42.3
22:00 1022 30.18 851 25.13 10.4 50.7 71 5.4 41.7
22:05 1022 30.18 851 25.13 10.4 50.8 66 4.5 40.1
22:10 1022 30.18 851 25.13 10.6 51.1 67 4.9 40.8
22:15 1022 30.18 851 25.13 10.6 51.2 67 4.7 40.5
22:20 1022 30.18 851 25.13 10.6 51 68 4.9 40.8
22:25 1022 30.18 851 25.13 10.6 51.1 67 4.7 40.5
22:30 1022 30.18 851 25.13 10.9 51.5 66 4.9 40.8
22:35 1022 30.18 851 25.13 10.9 51.6 67 5 41
22:40 1022 30.18 851 25.13 10.7 51.3 67 4.9 40.9
22:45 1022 30.18 851 25.13 10.7 51.3 67 4.9 40.8
22:50 1022 30.18 851 25.13 10.7 51.3 67 4.9 40.8
22:55 1022 30.18 851 25.13 10.6 51.1 67 4.8 40.7
23:00 1022 30.18 851 25.13 10.6 51 70 5.3 41.5
23:05 1022 30.18 851 25.13 10.6 51 68 5 41.1
23:10 1022 30.18 851 25.13 10.4 50.8 70 5.2 41.3
23:15 1022 30.18 851 25.13 10.3 50.6 69 5 41
23:20 1022 30.18 851 25.13 10.4 50.7 69 4.9 40.8
23:25 1022 30.18 851 25.13 10.4 50.6 69 4.9 40.8
23:30 1022 30.18 851 25.13 10.3 50.6 69 4.9 40.8
23:35 1022 30.18 851 25.13 10.3 50.6 68 4.6 40.4
23:40 1022 30.18 851 25.13 10.4 50.6 69 4.9 40.8
23:45 1022 30.18 851 25.13 10.3 50.6 68 4.8 40.6
23:50 1022 30.18 851 25.13 10.2 50.4 69 4.8 40.6
23:55 1022 30.18 851 25.13 10.1 50.1 70 4.9 40.8
24:00 1022 30.18 851 25.13 9.9 49.9 71 5 40.9